Barnesville, Georgia
Current Conditions -  °F | °C
As of 1:55 PM on Wednesday 26 Nov 2014 (Local Time) from KOPN Reporting Station
Clear Clear  
Wind Chill: 57°   Ceiling: Unl
Heat Index: 57°   Visibility: 10mi
Dew Point: 27°   Wind: 12mph
Humidity: 31%   Direction: 300°WNW
Pressure: 30.1"   Gusts: 21mph
Location:  33.05°N, 84.16°W
Report Text: KOPN 261855Z AUTO 30010G18KT 10SM CLR 14/M03 A3010 RMK AO2
Loading
Personal Weather Stations






























Interactive Weather Map New forecast layout! Learn more

10-Day Weather Forecast

Advertisements
Track Severe Weather on mobile